Lady Caroline — WDE6297 — position and weather

sailwx.info

Track history (hours):
 
Tides and Currents Weather Stations Pressure Air Temp Water Temp Dewpoint Dewpoint Depression Visibility Wind Speed Wind Dir Waves Ship Positions

Lady Caroline

Owner: Second Lady Caroline, LLC, Beverly Hills, CA. More information available from US FCC via Universal Licensing System.

Last reported at 2017-Mar-27 16:34 UTC. Time now 2017-Mar-27 16:33 UTC.
Position N 26°08' W 080°07'.

Length 33 m; draft 2.3 m.

Type: Pleasure craft. MMSI: 367378430.

Date/timePositionNaut miles runAvg speedWind from/ knotsBaromVisibWave heightAir tempDewpointWater temp
2017-Mar-27 16:34N 26°08' W 080°07'3 2.7
2017-Mar-27 15:34N 26°06' W 080°06'1413.8
2017-Mar-27 14:33N 26°19' W 080°03'  
2017-Mar-22 13:17N 26°43' W 080°03'1 0.9
2017-Mar-22 12:20N 26°44' W 080°03'3 3.3
2017-Mar-22 11:25N 26°41' W 080°00'1416.6
2017-Mar-22 10:33N 26°27' W 080°02'1716.5
2017-Mar-22 09:33N 26°11' W 080°04'4 3.9
2017-Mar-22 08:31N 26°07' W 080°07'1 1.1
2017-Mar-22 07:33N 26°08' W 080°07'0 0.0
2017-Mar-22 06:33N 26°08' W 080°07'0 0.0
2017-Mar-22 05:32N 26°08' W 080°07'0 0.0
2017-Mar-22 04:30N 26°08' W 080°07'0 0.0
2017-Mar-22 03:30N 26°08' W 080°07'0 0.0
2017-Mar-22 02:26N 26°08' W 080°07'0 0.0
2017-Mar-22 01:09N 26°08' W 080°07'0 0.0
2017-Mar-22 00:30N 26°08' W 080°07'0 0.0
2017-Mar-21 23:30N 26°08' W 080°07'0 0.0
2017-Mar-21 22:30N 26°08' W 080°07'0 0.0
2017-Mar-21 21:30N 26°08' W 080°07'0 0.0
2017-Mar-21 20:32N 26°08' W 080°07'0 0.0
2017-Mar-21 19:30N 26°08' W 080°07'0 0.0
2017-Mar-21 18:33N 26°08' W 080°07'0 0.0
2017-Mar-21 17:33N 26°08' W 080°07'0 0.0
2017-Mar-21 16:33N 26°08' W 080°07'0 0.0
2017-Mar-21 15:24N 26°08' W 080°07'0 0.0
2017-Mar-21 14:24N 26°08' W 080°07'0 0.0
2017-Mar-21 03:31N 26°08' W 080°07'0 0.0
2017-Mar-21 02:31N 26°08' W 080°07'0 0.0
2017-Mar-20 18:31N 26°08' W 080°07'0 0.0
2017-Mar-20 17:31N 26°08' W 080°07'  
Track history (hours):
 
Tides and Currents Weather Stations Pressure Air Temp Water Temp Dewpoint Dewpoint Depression Visibility Wind Speed Wind Dir Waves Ship Positions

Lady Caroline

Owner: Second Lady Caroline, LLC, Beverly Hills, CA. More information available from US FCC via Universal Licensing System.

Last reported at 2017-Mar-27 16:34 UTC. Time now 2017-Mar-27 16:33 UTC.
Position N 26°08' W 080°07'.

Length 33 m; draft 2.3 m.

Type: Pleasure craft. MMSI: 367378430.

Date/timePositionNaut miles runAvg speedWind from/ knotsBaromVisibWave heightAir tempDewpointWater temp
2017-Mar-27 16:34N 26°08' W 080°07'3 2.7
2017-Mar-27 15:34N 26°06' W 080°06'1413.8
2017-Mar-27 14:33N 26°19' W 080°03'  
2017-Mar-22 13:17N 26°43' W 080°03'1 0.9
2017-Mar-22 12:20N 26°44' W 080°03'3 3.3
2017-Mar-22 11:25N 26°41' W 080°00'1416.6
2017-Mar-22 10:33N 26°27' W 080°02'1716.5
2017-Mar-22 09:33N 26°11' W 080°04'4 3.9
2017-Mar-22 08:31N 26°07' W 080°07'1 1.1
2017-Mar-22 07:33N 26°08' W 080°07'0 0.0
2017-Mar-22 06:33N 26°08' W 080°07'0 0.0
2017-Mar-22 05:32N 26°08' W 080°07'0 0.0
2017-Mar-22 04:30N 26°08' W 080°07'0 0.0
2017-Mar-22 03:30N 26°08' W 080°07'0 0.0
2017-Mar-22 02:26N 26°08' W 080°07'0 0.0
2017-Mar-22 01:09N 26°08' W 080°07'0 0.0
2017-Mar-22 00:30N 26°08' W 080°07'0 0.0
2017-Mar-21 23:30N 26°08' W 080°07'0 0.0
2017-Mar-21 22:30N 26°08' W 080°07'0 0.0
2017-Mar-21 21:30N 26°08' W 080°07'0 0.0
2017-Mar-21 20:32N 26°08' W 080°07'0 0.0
2017-Mar-21 19:30N 26°08' W 080°07'0 0.0
2017-Mar-21 18:33N 26°08' W 080°07'0 0.0
2017-Mar-21 17:33N 26°08' W 080°07'0 0.0
2017-Mar-21 16:33N 26°08' W 080°07'0 0.0
2017-Mar-21 15:24N 26°08' W 080°07'0 0.0
2017-Mar-21 14:24N 26°08' W 080°07'0 0.0
2017-Mar-21 03:31N 26°08' W 080°07'0 0.0
2017-Mar-21 02:31N 26°08' W 080°07'0 0.0
2017-Mar-20 18:31N 26°08' W 080°07'0 0.0
2017-Mar-20 17:31N 26°08' W 080°07'  

Dump ship's entire track history